sensor_id;sensor_type;location;lat;lon;timestamp;pressure;altitude;pressure_sealevel;temperature;humidity
17438;BME280;8836;52.272;5.134;2022-08-01T00:02:00;101468.78;;;27.32;94.21
17438;BME280;8836;52.272;5.134;2022-08-01T00:04:27;101472.38;;;27.31;94.06
17438;BME280;8836;52.272;5.134;2022-08-01T00:06:54;101468.78;;;27.32;94.18
17438;BME280;8836;52.272;5.134;2022-08-01T00:09:21;101469.63;;;27.29;94.31
17438;BME280;8836;52.272;5.134;2022-08-01T00:11:48;101473.25;;;27.30;94.05
17438;BME280;8836;52.272;5.134;2022-08-01T00:14:15;101472.31;;;27.28;94.43
17438;BME280;8836;52.272;5.134;2022-08-01T00:16:42;101478.66;;;27.28;94.18
17438;BME280;8836;52.272;5.134;2022-08-01T00:19:10;101476.88;;;27.29;94.14
17438;BME280;8836;52.272;5.134;2022-08-01T00:21:37;101475.09;;;27.31;94.32
17438;BME280;8836;52.272;5.134;2022-08-01T00:24:04;101483.28;;;27.32;94.17
17438;BME280;8836;52.272;5.134;2022-08-01T00:26:31;101479.66;;;27.33;94.10
17438;BME280;8836;52.272;5.134;2022-08-01T00:28:58;101484.22;;;27.34;94.23
17438;BME280;8836;52.272;5.134;2022-08-01T00:31:25;101481.50;;;27.34;94.01
17438;BME280;8836;52.272;5.134;2022-08-01T00:33:52;101486.06;;;27.37;94.08
17438;BME280;8836;52.272;5.134;2022-08-01T00:36:20;101482.47;;;27.38;93.98
17438;BME280;8836;52.272;5.134;2022-08-01T00:38:47;101481.56;;;27.38;94.04
17438;BME280;8836;52.272;5.134;2022-08-01T00:41:17;101483.28;;;27.32;94.33
17438;BME280;8836;52.272;5.134;2022-08-01T00:43:47;101478.69;;;27.30;94.46
17438;BME280;8836;52.272;5.134;2022-08-01T00:46:15;101476.88;;;27.29;94.44
17438;BME280;8836;52.272;5.134;2022-08-01T00:48:42;101477.75;;;27.28;94.81
17438;BME280;8836;52.272;5.134;2022-08-01T00:51:09;101481.38;;;27.28;94.45
17438;BME280;8836;52.272;5.134;2022-08-01T00:53:38;101478.66;;;27.28;94.53
17438;BME280;8836;52.272;5.134;2022-08-01T00:56:06;101488.66;;;27.31;94.51
17438;BME280;8836;52.272;5.134;2022-08-01T00:58:34;101484.16;;;27.31;94.41
17438;BME280;8836;52.272;5.134;2022-08-01T01:01:01;101482.38;;;27.33;94.32
17438;BME280;8836;52.272;5.134;2022-08-01T01:03:28;101486.91;;;27.33;94.59
17438;BME280;8836;52.272;5.134;2022-08-01T01:06:07;101488.72;;;27.34;94.52
17438;BME280;8836;52.272;5.134;2022-08-01T01:08:46;101487.81;;;27.33;94.59
17438;BME280;8836;52.272;5.134;2022-08-01T01:11:28;101488.72;;;27.34;94.69
17438;BME280;8836;52.272;5.134;2022-08-01T01:14:05;101484.03;;;27.25;94.75
17438;BME280;8836;52.272;5.134;2022-08-01T01:16:40;101490.53;;;27.33;94.83
17438;BME280;8836;52.272;5.134;2022-08-01T01:19:16;101491.34;;;27.29;95.00
17438;BME280;8836;52.272;5.134;2022-08-01T01:22:08;101484.09;;;27.28;95.18
17438;BME280;8836;52.272;5.134;2022-08-01T01:25:03;101485.03;;;27.30;95.17
17438;BME280;8836;52.272;5.134;2022-08-01T01:27:45;101481.41;;;27.30;95.08
17438;BME280;8836;52.272;5.134;2022-08-01T01:30:16;101487.75;;;27.30;95.10
17438;BME280;8836;52.272;5.134;2022-08-01T01:32:47;101487.75;;;27.30;95.00
17438;BME280;8836;52.272;5.134;2022-08-01T01:35:22;101489.59;;;27.31;94.90
17438;BME280;8836;52.272;5.134;2022-08-01T01:37:59;101477.84;;;27.32;94.87
17438;BME280;8836;52.272;5.134;2022-08-01T01:40:28;101467.75;;;27.25;94.97
17438;BME280;8836;52.272;5.134;2022-08-01T01:42:57;101484.09;;;27.28;95.03
17438;BME280;8836;52.272;5.134;2022-08-01T01:45:28;101473.25;;;27.28;95.09
17438;BME280;8836;52.272;5.134;2022-08-01T01:47:57;101475.94;;;27.28;94.87
17438;BME280;8836;52.272;5.134;2022-08-01T01:50:26;101481.41;;;27.30;94.79
17438;BME280;8836;52.272;5.134;2022-08-01T01:52:55;101483.09;;;27.25;95.42
17438;BME280;8836;52.272;5.134;2022-08-01T01:55:25;101488.53;;;27.25;95.30
17438;BME280;8836;52.272;5.134;2022-08-01T01:57:55;101487.63;;;27.24;95.36
17438;BME280;8836;52.272;5.134;2022-08-01T02:00:26;101491.22;;;27.23;95.25
17438;BME280;8836;52.272;5.134;2022-08-01T02:02:55;101487.66;;;27.26;95.40
17438;BME280;8836;52.272;5.134;2022-08-01T02:05:24;101490.38;;;27.26;95.27
17438;BME280;8836;52.272;5.134;2022-08-01T02:07:55;101491.28;;;27.26;95.25
17438;BME280;8836;52.272;5.134;2022-08-01T02:10:24;101491.31;;;27.28;95.27
17438;BME280;8836;52.272;5.134;2022-08-01T02:12:53;101483.22;;;27.29;95.18
17438;BME280;8836;52.272;5.134;2022-08-01T02:15:21;101480.47;;;27.28;95.31
17438;BME280;8836;52.272;5.134;2022-08-01T02:17:53;101485.84;;;27.26;95.40
17438;BME280;8836;52.272;5.134;2022-08-01T02:20:22;101479.53;;;27.27;95.28
17438;BME280;8836;52.272;5.134;2022-08-01T02:22:53;101484.97;;;27.27;95.44
17438;BME280;8836;52.272;5.134;2022-08-01T02:25:27;101485.84;;;27.26;95.58
17438;BME280;8836;52.272;5.134;2022-08-01T02:28:01;101486.78;;;27.27;95.69
17438;BME280;8836;52.272;5.134;2022-08-01T02:30:34;101484.91;;;27.24;95.58
17438;BME280;8836;52.272;5.134;2022-08-01T02:33:08;101493.97;;;27.25;95.59
17438;BME280;8836;52.272;5.134;2022-08-01T02:35:41;101493.09;;;27.26;95.76
17438;BME280;8836;52.272;5.134;2022-08-01T02:38:11;101496.72;;;27.26;95.56
17438;BME280;8836;52.272;5.134;2022-08-01T02:40:45;101491.28;;;27.26;95.70
17438;BME280;8836;52.272;5.134;2022-08-01T02:43:15;101499.41;;;27.26;95.57
17438;BME280;8836;52.272;5.134;2022-08-01T02:45:52;101495.81;;;27.27;95.58
17438;BME280;8836;52.272;5.134;2022-08-01T02:48:23;101499.47;;;27.29;95.74
17438;BME280;8836;52.272;5.134;2022-08-01T02:50:57;101496.78;;;27.29;95.68
17438;BME280;8836;52.272;5.134;2022-08-01T02:53:27;101493.13;;;27.27;95.72
17438;BME280;8836;52.272;5.134;2022-08-01T02:55:59;101497.66;;;27.28;95.52
17438;BME280;8836;52.272;5.134;2022-08-01T02:58:27;101501.25;;;27.27;95.60
17438;BME280;8836;52.272;5.134;2022-08-01T03:00:57;101493.97;;;27.25;95.82
17438;BME280;8836;52.272;5.134;2022-08-01T03:03:27;101500.31;;;27.25;95.84
17438;BME280;8836;52.272;5.134;2022-08-01T03:05:56;101494.81;;;27.22;95.83
17438;BME280;8836;52.272;5.134;2022-08-01T03:08:25;101488.47;;;27.22;95.94
17438;BME280;8836;52.272;5.134;2022-08-01T03:10:55;101492.97;;;27.21;95.99
17438;BME280;8836;52.272;5.134;2022-08-01T03:13:25;101484.84;;;27.21;95.76
17438;BME280;8836;52.272;5.134;2022-08-01T03:15:56;101487.56;;;27.21;95.72
17438;BME280;8836;52.272;5.134;2022-08-01T03:18:27;101485.78;;;27.23;95.88
17438;BME280;8836;52.272;5.134;2022-08-01T03:20:58;101493.00;;;27.23;95.88
17438;BME280;8836;52.272;5.134;2022-08-01T03:23:27;101494.81;;;27.22;96.11
17438;BME280;8836;52.272;5.134;2022-08-01T03:25:58;101490.22;;;27.20;95.90
17438;BME280;8836;52.272;5.134;2022-08-01T03:28:27;101493.88;;;27.20;96.05
17438;BME280;8836;52.272;5.134;2022-08-01T03:30:58;101501.88;;;27.14;96.12
17438;BME280;8836;52.272;5.134;2022-08-01T03:33:26;101496.38;;;27.11;96.13
17438;BME280;8836;52.272;5.134;2022-08-01T03:35:55;101497.25;;;27.10;96.20
17438;BME280;8836;52.272;5.134;2022-08-01T03:38:25;101493.56;;;27.07;96.20
17438;BME280;8836;52.272;5.134;2022-08-01T03:40:57;101494.47;;;27.07;96.27
17438;BME280;8836;52.272;5.134;2022-08-01T03:43:32;101493.56;;;27.07;96.04
17438;BME280;8836;52.272;5.134;2022-08-01T03:46:07;101499.84;;;27.04;96.15
17438;BME280;8836;52.272;5.134;2022-08-01T03:48:40;101499.88;;;27.06;95.99
17438;BME280;8836;52.272;5.134;2022-08-01T03:51:08;101495.31;;;27.03;95.94
17438;BME280;8836;52.272;5.134;2022-08-01T03:53:38;101492.53;;;27.00;96.04
17438;BME280;8836;52.272;5.134;2022-08-01T03:56:08;101504.38;;;27.03;96.05
17438;BME280;8836;52.272;5.134;2022-08-01T03:58:39;101506.19;;;27.03;95.69
17438;BME280;8836;52.272;5.134;2022-08-01T04:01:07;101511.59;;;27.03;95.64
17438;BME280;8836;52.272;5.134;2022-08-01T04:03:37;101507.97;;;27.02;95.68
17438;BME280;8836;52.272;5.134;2022-08-01T04:06:05;101513.38;;;27.01;95.56
17438;BME280;8836;52.272;5.134;2022-08-01T04:08:35;101498.75;;;26.96;95.66
17438;BME280;8836;52.272;5.134;2022-08-01T04:11:02;101509.59;;;26.96;95.68
17438;BME280;8836;52.272;5.134;2022-08-01T04:13:30;101506.84;;;26.94;95.79
17438;BME280;8836;52.272;5.134;2022-08-01T04:15:58;101514.00;;;26.91;95.79
17438;BME280;8836;52.272;5.134;2022-08-01T04:18:26;101515.78;;;26.90;95.68
17438;BME280;8836;52.272;5.134;2022-08-01T04:20:54;101509.41;;;26.88;95.71
17438;BME280;8836;52.272;5.134;2022-08-01T04:23:25;101526.53;;;26.86;95.62
17438;BME280;8836;52.272;5.134;2022-08-01T04:25:54;101526.41;;;26.80;95.69
17438;BME280;8836;52.272;5.134;2022-08-01T04:28:23;101528.91;;;26.72;96.00
17438;BME280;8836;52.272;5.134;2022-08-01T04:30:55;101518.03;;;26.70;95.86
17438;BME280;8836;52.272;5.134;2022-08-01T04:33:24;101530.78;;;26.75;95.80
17438;BME280;8836;52.272;5.134;2022-08-01T04:35:54;101533.50;;;26.75;95.43
17438;BME280;8836;52.272;5.134;2022-08-01T04:38:26;101533.47;;;26.73;95.45
17438;BME280;8836;52.272;5.134;2022-08-01T04:40:57;101535.25;;;26.73;95.46
17438;BME280;8836;52.272;5.134;2022-08-01T04:43:24;101530.72;;;26.71;95.59
17438;BME280;8836;52.272;5.134;2022-08-01T04:45:52;101536.13;;;26.71;95.38
17438;BME280;8836;52.272;5.134;2022-08-01T04:48:21;101531.59;;;26.70;95.53
17438;BME280;8836;52.272;5.134;2022-08-01T04:50:50;101538.78;;;26.68;95.48
17438;BME280;8836;52.272;5.134;2022-08-01T04:53:19;101540.47;;;26.63;95.47
17438;BME280;8836;52.272;5.134;2022-08-01T04:55:48;101539.66;;;26.67;95.46
17438;BME280;8836;52.272;5.134;2022-08-01T04:58:18;101547.03;;;26.73;95.20
17438;BME280;8836;52.272;5.134;2022-08-01T05:00:45;101551.59;;;26.76;95.09
17438;BME280;8836;52.272;5.134;2022-08-01T05:03:12;101549.78;;;26.75;95.04
17438;BME280;8836;52.272;5.134;2022-08-01T05:05:40;101556.25;;;26.81;94.71
17438;BME280;8836;52.272;5.134;2022-08-01T05:08:07;101551.78;;;26.83;94.76
17438;BME280;8836;52.272;5.134;2022-08-01T05:10:38;101562.66;;;26.85;94.83
17438;BME280;8836;52.272;5.134;2022-08-01T05:13:05;101562.69;;;26.86;94.92
17438;BME280;8836;52.272;5.134;2022-08-01T05:15:34;101559.13;;;26.87;95.10
17438;BME280;8836;52.272;5.134;2022-08-01T05:18:02;101565.44;;;26.88;95.33
17438;BME280;8836;52.272;5.134;2022-08-01T05:20:29;101560.91;;;26.87;95.09
17438;BME280;8836;52.272;5.134;2022-08-01T05:22:57;101557.28;;;26.86;95.19
17438;BME280;8836;52.272;5.134;2022-08-01T05:25:24;101562.69;;;26.86;95.23
17438;BME280;8836;52.272;5.134;2022-08-01T05:27:52;101556.41;;;26.87;95.17
17438;BME280;8836;52.272;5.134;2022-08-01T05:30:19;101550.09;;;26.88;95.01
17438;BME280;8836;52.272;5.134;2022-08-01T05:32:46;101563.81;;;26.94;95.04
17438;BME280;8836;52.272;5.134;2022-08-01T05:35:14;101565.63;;;26.95;95.24
17438;BME280;8836;52.272;5.134;2022-08-01T05:37:40;101556.66;;;26.96;95.16
17438;BME280;8836;52.272;5.134;2022-08-01T05:40:09;101562.13;;;26.98;95.18
17438;BME280;8836;52.272;5.134;2022-08-01T05:42:36;101563.00;;;26.97;95.17
17438;BME280;8836;52.272;5.134;2022-08-01T05:45:06;101566.66;;;26.99;95.27
17438;BME280;8836;52.272;5.134;2022-08-01T05:47:32;101578.41;;;26.99;95.54
17438;BME280;8836;52.272;5.134;2022-08-01T05:50:00;101568.50;;;27.00;95.78
17438;BME280;8836;52.272;5.134;2022-08-01T05:52:26;101566.66;;;26.99;96.02
17438;BME280;8836;52.272;5.134;2022-08-01T05:54:54;101567.53;;;26.98;96.27
17438;BME280;8836;52.272;5.134;2022-08-01T05:57:21;101564.81;;;26.98;96.33
17438;BME280;8836;52.272;5.134;2022-08-01T05:59:48;101569.41;;;27.00;96.42
17438;BME280;8836;52.272;5.134;2022-08-01T06:02:16;101571.19;;;27.00;96.33
17438;BME280;8836;52.272;5.134;2022-08-01T06:04:47;101568.56;;;27.03;95.91
17438;BME280;8836;52.272;5.134;2022-08-01T06:07:15;101572.25;;;27.08;95.77
17438;BME280;8836;52.272;5.134;2022-08-01T06:09:42;101579.50;;;27.09;95.58
17438;BME280;8836;52.272;5.134;2022-08-01T06:12:09;101576.84;;;27.11;95.55
17438;BME280;8836;52.272;5.134;2022-08-01T06:14:36;101586.78;;;27.10;95.46
17438;BME280;8836;52.272;5.134;2022-08-01T06:17:03;101577.75;;;27.11;95.33
17438;BME280;8836;52.272;5.134;2022-08-01T06:19:31;101585.00;;;27.12;95.40
17438;BME280;8836;52.272;5.134;2022-08-01T06:21:58;101589.53;;;27.12;95.35
17438;BME280;8836;52.272;5.134;2022-08-01T06:24:25;101581.34;;;27.10;95.35
17438;BME280;8836;52.272;5.134;2022-08-01T06:26:52;101583.19;;;27.11;95.41
17438;BME280;8836;52.272;5.134;2022-08-01T06:29:19;101586.75;;;27.09;95.28
17438;BME280;8836;52.272;5.134;2022-08-01T06:31:46;101588.53;;;27.08;95.22
17438;BME280;8836;52.272;5.134;2022-08-01T06:34:13;101592.13;;;27.07;95.55
17438;BME280;8836;52.272;5.134;2022-08-01T06:36:42;101593.97;;;27.08;95.31
17438;BME280;8836;52.272;5.134;2022-08-01T06:39:09;101597.63;;;27.10;95.08
17438;BME280;8836;52.272;5.134;2022-08-01T06:41:36;101597.63;;;27.10;94.96
17438;BME280;8836;52.272;5.134;2022-08-01T06:44:03;101597.63;;;27.10;94.79
17438;BME280;8836;52.272;5.134;2022-08-01T06:46:31;101592.06;;;27.04;94.63
17438;BME280;8836;52.272;5.134;2022-08-01T06:48:58;101596.78;;;27.13;94.34
17438;BME280;8836;52.272;5.134;2022-08-01T06:51:25;101597.66;;;27.12;94.49
17438;BME280;8836;52.272;5.134;2022-08-01T06:53:53;101609.44;;;27.12;94.25
17438;BME280;8836;52.272;5.134;2022-08-01T06:56:20;101608.50;;;27.12;94.50
17438;BME280;8836;52.272;5.134;2022-08-01T06:58:48;101603.94;;;27.09;94.58
17438;BME280;8836;52.272;5.134;2022-08-01T07:01:16;101601.50;;;27.21;94.11
17438;BME280;8836;52.272;5.134;2022-08-01T07:03:43;101605.16;;;27.23;94.03
17438;BME280;8836;52.272;5.134;2022-08-01T07:06:11;101606.84;;;27.18;93.87
17438;BME280;8836;52.272;5.134;2022-08-01T07:08:40;101618.38;;;27.08;94.44
17438;BME280;8836;52.272;5.134;2022-08-01T07:11:09;101611.56;;;26.88;94.91
17438;BME280;8836;52.272;5.134;2022-08-01T07:13:36;101613.53;;;26.95;94.63
17438;BME280;8836;52.272;5.134;2022-08-01T07:16:03;101618.16;;;26.97;94.46
17438;BME280;8836;52.272;5.134;2022-08-01T07:18:30;101618.19;;;26.99;94.44
17438;BME280;8836;52.272;5.134;2022-08-01T07:20:58;101620.63;;;26.90;94.58
17438;BME280;8836;52.272;5.134;2022-08-01T07:23:25;101623.91;;;26.77;94.91
17438;BME280;8836;52.272;5.134;2022-08-01T07:25:51;101624.44;;;26.62;95.51
17438;BME280;8836;52.272;5.134;2022-08-01T07:28:20;101628.47;;;26.43;96.08
17438;BME280;8836;52.272;5.134;2022-08-01T07:30:47;101634.72;;;26.41;96.17
17438;BME280;8836;52.272;5.134;2022-08-01T07:33:15;101626.38;;;26.33;96.37
17438;BME280;8836;52.272;5.134;2022-08-01T07:35:42;101631.38;;;26.19;96.80
17438;BME280;8836;52.272;5.134;2022-08-01T07:38:09;101640.59;;;25.93;96.79
17438;BME280;8836;52.272;5.134;2022-08-01T07:40:36;101643.47;;;25.67;98.04
17438;BME280;8836;52.272;5.134;2022-08-01T07:43:03;101645.56;;;25.78;97.57
17438;BME280;8836;52.272;5.134;2022-08-01T07:45:31;101659.50;;;25.91;97.38
17438;BME280;8836;52.272;5.134;2022-08-01T07:48:03;101655.28;;;26.02;97.45
17438;BME280;8836;52.272;5.134;2022-08-01T07:50:30;101653.84;;;26.15;97.36
17438;BME280;8836;52.272;5.134;2022-08-01T07:52:57;101661.34;;;26.25;96.88
17438;BME280;8836;52.272;5.134;2022-08-01T07:55:24;101657.78;;;26.26;96.75
17438;BME280;8836;52.272;5.134;2022-08-01T07:57:51;101661.72;;;26.37;96.31
17438;BME280;8836;52.272;5.134;2022-08-01T08:00:18;101648.22;;;26.39;96.08
17438;BME280;8836;52.272;5.134;2022-08-01T08:02:46;101667.53;;;26.51;95.52
17438;BME280;8836;52.272;5.134;2022-08-01T08:05:15;101670.44;;;26.59;95.38
17438;BME280;8836;52.272;5.134;2022-08-01T08:07:42;101670.53;;;26.62;95.14
17438;BME280;8836;52.272;5.134;2022-08-01T08:10:10;101670.56;;;26.63;95.33
17438;BME280;8836;52.272;5.134;2022-08-01T08:12:37;101664.50;;;26.39;95.74
17438;BME280;8836;52.272;5.134;2022-08-01T08:15:05;101659.59;;;26.27;95.41
17438;BME280;8836;52.272;5.134;2022-08-01T08:17:32;101675.31;;;25.76;97.00
17438;BME280;8836;52.272;5.134;2022-08-01T08:20:04;101678.28;;;25.57;97.17
17438;BME280;8836;52.272;5.134;2022-08-01T08:22:31;101676.84;;;25.68;96.82
17438;BME280;8836;52.272;5.134;2022-08-01T08:24:58;101674.78;;;25.89;96.39
17438;BME280;8836;52.272;5.134;2022-08-01T08:27:25;101672.25;;;25.95;96.51
17438;BME280;8836;52.272;5.134;2022-08-01T08:29:52;101681.69;;;26.10;96.07
17438;BME280;8836;52.272;5.134;2022-08-01T08:32:19;101684.88;;;26.26;95.80
17438;BME280;8836;52.272;5.134;2022-08-01T08:34:47;101688.19;;;26.16;92.85
17438;BME280;8836;52.272;5.134;2022-08-01T08:37:19;101683.94;;;26.26;92.54
17438;BME280;8836;52.272;5.134;2022-08-01T08:39:46;101686.69;;;26.27;92.03
17438;BME280;8836;52.272;5.134;2022-08-01T08:42:13;101687.44;;;26.22;90.85
17438;BME280;8836;52.272;5.134;2022-08-01T08:44:41;101698.19;;;26.19;90.23
17438;BME280;8836;52.272;5.134;2022-08-01T08:47:12;101690.75;;;26.12;88.35
17438;BME280;8836;52.272;5.134;2022-08-01T08:49:43;101698.28;;;25.90;87.37
17438;BME280;8836;52.272;5.134;2022-08-01T08:52:11;101696.75;;;25.70;86.95
17438;BME280;8836;52.272;5.134;2022-08-01T08:54:41;101700.63;;;25.78;87.08
17438;BME280;8836;52.272;5.134;2022-08-01T08:57:10;101697.03;;;25.79;87.33
17438;BME280;8836;52.272;5.134;2022-08-01T08:59:40;101709.03;;;25.87;86.11
17438;BME280;8836;52.272;5.134;2022-08-01T09:02:09;101707.00;;;25.80;85.86
17438;BME280;8836;52.272;5.134;2022-08-01T09:04:38;101699.44;;;25.68;85.94
17438;BME280;8836;52.272;5.134;2022-08-01T09:07:06;101703.69;;;25.62;85.95
17438;BME280;8836;52.272;5.134;2022-08-01T09:09:34;101706.72;;;25.71;86.82
17438;BME280;8836;52.272;5.134;2022-08-01T09:12:05;101711.13;;;25.67;86.66
17438;BME280;8836;52.272;5.134;2022-08-01T09:14:32;101713.00;;;25.70;86.31
17438;BME280;8836;52.272;5.134;2022-08-01T09:17:03;101710.59;;;25.79;86.25
17438;BME280;8836;52.272;5.134;2022-08-01T09:19:37;101725.94;;;25.80;85.01
17438;BME280;8836;52.272;5.134;2022-08-01T09:22:07;101717.34;;;25.65;85.49
17438;BME280;8836;52.272;5.134;2022-08-01T09:24:35;101714.22;;;25.53;85.24
17438;BME280;8836;52.272;5.134;2022-08-01T09:27:18;101720.25;;;25.44;77.78
17438;BME280;8836;52.272;5.134;2022-08-01T09:29:45;101722.19;;;25.48;77.81
17438;BME280;8836;52.272;5.134;2022-08-01T09:32:12;101727.47;;;25.43;75.20
17438;BME280;8836;52.272;5.134;2022-08-01T09:34:39;101723.69;;;25.38;74.68
17438;BME280;8836;52.272;5.134;2022-08-01T09:37:06;101726.19;;;25.32;76.35
17438;BME280;8836;52.272;5.134;2022-08-01T09:39:36;101735.19;;;25.31;76.18
17438;BME280;8836;52.272;5.134;2022-08-01T09:42:22;101727.06;;;25.31;75.71
17438;BME280;8836;52.272;5.134;2022-08-01T09:44:50;101733.63;;;25.39;75.65
17438;BME280;8836;52.272;5.134;2022-08-01T09:47:18;101743.22;;;25.57;77.00
17438;BME280;8836;52.272;5.134;2022-08-01T09:49:55;101737.50;;;25.48;76.06
17438;BME280;8836;52.272;5.134;2022-08-01T09:52:25;101735.69;;;25.47;75.53
17438;BME280;8836;52.272;5.134;2022-08-01T09:54:56;101741.19;;;25.50;75.61
17438;BME280;8836;52.272;5.134;2022-08-01T09:57:26;101745.72;;;25.51;75.54
17438;BME280;8836;52.272;5.134;2022-08-01T09:59:55;101746.34;;;25.42;75.32
17438;BME280;8836;52.272;5.134;2022-08-01T10:02:34;101727.94;;;25.30;75.27
17438;BME280;8836;52.272;5.134;2022-08-01T10:05:03;101743.66;;;25.42;76.94
17438;BME280;8836;52.272;5.134;2022-08-01T10:07:31;101738.63;;;25.54;78.59
17438;BME280;8836;52.272;5.134;2022-08-01T10:10:11;101741.00;;;25.70;78.17
17438;BME280;8836;52.272;5.134;2022-08-01T10:12:41;101743.66;;;25.69;75.68
17438;BME280;8836;52.272;5.134;2022-08-01T10:15:09;101749.16;;;25.72;74.60
17438;BME280;8836;52.272;5.134;2022-08-01T10:17:40;101754.75;;;25.78;74.23
17438;BME280;8836;52.272;5.134;2022-08-01T10:20:13;101743.66;;;25.69;72.25
17438;BME280;8836;52.272;5.134;2022-08-01T10:22:43;101747.50;;;25.77;70.59
17438;BME280;8836;52.272;5.134;2022-08-01T10:25:10;101744.84;;;25.79;70.09
17438;BME280;8836;52.272;5.134;2022-08-01T10:27:43;101742.81;;;25.71;70.32
17438;BME280;8836;52.272;5.134;2022-08-01T10:30:12;101731.69;;;25.62;71.83
17438;BME280;8836;52.272;5.134;2022-08-01T10:32:41;101738.53;;;25.78;73.69
17438;BME280;8836;52.272;5.134;2022-08-01T10:35:09;101751.09;;;25.76;76.14
17438;BME280;8836;52.272;5.134;2022-08-01T10:37:42;101748.19;;;25.70;77.20
17438;BME280;8836;52.272;5.134;2022-08-01T10:40:11;101748.38;;;25.76;78.77
17438;BME280;8836;52.272;5.134;2022-08-01T10:42:42;101745.00;;;25.83;78.77
17438;BME280;8836;52.272;5.134;2022-08-01T10:45:15;101747.50;;;25.77;77.91
17438;BME280;8836;52.272;5.134;2022-08-01T10:47:50;101742.22;;;25.53;78.18
17438;BME280;8836;52.272;5.134;2022-08-01T10:50:32;101741.50;;;25.59;76.88
17438;BME280;8836;52.272;5.134;2022-08-01T10:53:12;101747.63;;;25.53;78.23
17438;BME280;8836;52.272;5.134;2022-08-01T10:55:52;101744.63;;;25.71;78.14
17438;BME280;8836;52.272;5.134;2022-08-01T10:58:28;101758.00;;;25.66;77.86
17438;BME280;8836;52.272;5.134;2022-08-01T11:01:29;101747.88;;;25.61;77.50
17438;BME280;8836;52.272;5.134;2022-08-01T11:04:10;101755.69;;;25.52;78.58
17438;BME280;8836;52.272;5.134;2022-08-01T11:06:52;101747.63;;;25.53;78.29
17438;BME280;8836;52.272;5.134;2022-08-01T11:09:28;101750.28;;;25.52;78.45
17438;BME280;8836;52.272;5.134;2022-08-01T11:12:02;101748.03;;;25.38;78.46
17438;BME280;8836;52.272;5.134;2022-08-01T11:14:33;101757.03;;;25.37;77.04
17438;BME280;8836;52.272;5.134;2022-08-01T11:17:35;101754.38;;;25.39;75.46
17438;BME280;8836;52.272;5.134;2022-08-01T11:20:08;101755.50;;;25.46;72.25
17438;BME280;8836;52.272;5.134;2022-08-01T11:23:23;101761.50;;;25.37;69.59
17438;BME280;8836;52.272;5.134;2022-08-01T11:26:16;101754.22;;;25.34;67.11
17438;BME280;8836;52.272;5.134;2022-08-01T11:28:48;101768.16;;;25.47;67.98
17438;BME280;8836;52.272;5.134;2022-08-01T11:31:34;101771.63;;;25.42;68.68
17438;BME280;8836;52.272;5.134;2022-08-01T11:34:01;101784.22;;;25.42;68.21
17438;BME280;8836;52.272;5.134;2022-08-01T11:36:29;101770.75;;;25.43;68.37
17438;BME280;8836;52.272;5.134;2022-08-01T11:39:17;101784.19;;;25.40;69.15
17438;BME280;8836;52.272;5.134;2022-08-01T11:41:47;101779.06;;;25.50;68.71
17438;BME280;8836;52.272;5.134;2022-08-01T11:44:23;101773.75;;;25.53;68.27
17438;BME280;8836;52.272;5.134;2022-08-01T11:47:00;101771.25;;;25.59;68.06
17438;BME280;8836;52.272;5.134;2022-08-01T11:49:46;101764.56;;;25.74;67.35
17438;BME280;8836;52.272;5.134;2022-08-01T11:52:19;101769.28;;;25.80;66.45
17438;BME280;8836;52.272;5.134;2022-08-01T11:54:52;101765.94;;;25.89;66.12
17438;BME280;8836;52.272;5.134;2022-08-01T11:57:21;101763.31;;;25.92;64.50
17438;BME280;8836;52.272;5.134;2022-08-01T11:59:53;101766.31;;;26.02;64.91
17438;BME280;8836;52.272;5.134;2022-08-01T12:02:25;101765.72;;;26.13;65.05
17438;BME280;8836;52.272;5.134;2022-08-01T12:04:59;101774.63;;;26.08;64.12
17438;BME280;8836;52.272;5.134;2022-08-01T12:07:29;101766.59;;;26.12;64.04
17438;BME280;8836;52.272;5.134;2022-08-01T12:10:00;101776.47;;;26.10;61.65
17438;BME280;8836;52.272;5.134;2022-08-01T12:12:29;101779.63;;;25.93;60.53
17438;BME280;8836;52.272;5.134;2022-08-01T12:14:59;101783.09;;;25.89;60.75
17438;BME280;8836;52.272;5.134;2022-08-01T12:17:34;101770.91;;;25.75;59.78
17438;BME280;8836;52.272;5.134;2022-08-01T12:20:04;101780.78;;;25.73;60.56
17438;BME280;8836;52.272;5.134;2022-08-01T12:22:32;101776.22;;;25.72;61.86
17438;BME280;8836;52.272;5.134;2022-08-01T12:25:06;101781.31;;;25.63;60.86
17438;BME280;8836;52.272;5.134;2022-08-01T12:27:38;101782.75;;;25.79;61.10
17438;BME280;8836;52.272;5.134;2022-08-01T12:30:11;101774.88;;;25.86;61.18
17438;BME280;8836;52.272;5.134;2022-08-01T12:32:41;101774.19;;;25.93;60.33
17438;BME280;8836;52.272;5.134;2022-08-01T12:35:10;101777.81;;;25.94;60.89
17438;BME280;8836;52.272;5.134;2022-08-01T12:37:42;101781.88;;;26.10;62.18
17438;BME280;8836;52.272;5.134;2022-08-01T12:40:13;101775.94;;;25.91;60.53
17438;BME280;8836;52.272;5.134;2022-08-01T12:42:46;101767.81;;;25.91;60.52
17438;BME280;8836;52.272;5.134;2022-08-01T12:45:23;101771.59;;;25.96;60.76
17438;BME280;8836;52.272;5.134;2022-08-01T12:47:53;101787.31;;;26.10;60.33
17438;BME280;8836;52.272;5.134;2022-08-01T12:50:23;101784.09;;;26.23;59.99
17438;BME280;8836;52.272;5.134;2022-08-01T12:52:51;101775.69;;;26.14;57.41
17438;BME280;8836;52.272;5.134;2022-08-01T12:55:20;101779.38;;;26.16;57.10
17438;BME280;8836;52.272;5.134;2022-08-01T12:57:49;101784.06;;;26.21;57.52
17438;BME280;8836;52.272;5.134;2022-08-01T13:00:23;101777.34;;;26.08;56.14
17438;BME280;8836;52.272;5.134;2022-08-01T13:03:03;101771.28;;;26.17;54.57
17438;BME280;8836;52.272;5.134;2022-08-01T13:05:42;101779.47;;;26.19;52.86
17438;BME280;8836;52.272;5.134;2022-08-01T13:08:11;101763.28;;;26.22;51.88
17438;BME280;8836;52.272;5.134;2022-08-01T13:10:40;101779.63;;;26.25;51.03
17438;BME280;8836;52.272;5.134;2022-08-01T13:13:08;101779.28;;;26.13;49.80
17438;BME280;8836;52.272;5.134;2022-08-01T13:15:38;101771.50;;;26.25;50.27
17438;BME280;8836;52.272;5.134;2022-08-01T13:18:26;101777.81;;;26.24;49.01